createdAt,value
2023-03-08T00:01:15.991Z,2.90
2023-03-08T00:03:42.554Z,2.97
2023-03-08T00:06:12.553Z,3.47
2023-03-08T00:11:07.117Z,2.70
2023-03-08T00:13:33.526Z,3.08
2023-03-08T00:16:01.730Z,3.10
2023-03-08T00:18:28.182Z,3.53
2023-03-08T00:21:09.701Z,2.88
2023-03-08T00:23:36.235Z,2.72
2023-03-08T00:26:03.029Z,3.90
2023-03-08T00:28:30.120Z,4.32
2023-03-08T00:30:57.658Z,4.32
2023-03-08T00:33:24.112Z,4.45
2023-03-08T00:35:58.344Z,4.25
2023-03-08T00:38:25.480Z,4.13
2023-03-08T00:40:52.646Z,3.63
2023-03-08T00:43:19.285Z,3.20
2023-03-08T00:45:45.697Z,2.97
2023-03-08T00:48:12.488Z,3.33
2023-03-08T00:50:39.026Z,2.95
2023-03-08T00:53:05.691Z,3.47
2023-03-08T00:55:32.097Z,3.35
2023-03-08T00:57:58.686Z,3.58
2023-03-08T01:00:25.132Z,3.35
2023-03-08T01:02:51.564Z,2.72
2023-03-08T01:05:17.895Z,3.05
2023-03-08T01:07:44.237Z,2.10
2023-03-08T01:10:11.393Z,2.03
2023-03-08T01:12:38.372Z,2.08
2023-03-08T01:15:05.858Z,1.50
2023-03-08T01:17:32.563Z,1.42
2023-03-08T01:19:58.920Z,1.70
2023-03-08T01:22:25.297Z,1.50
2023-03-08T01:24:51.673Z,1.60
2023-03-08T01:27:18.018Z,1.80
2023-03-08T01:29:44.630Z,1.70
2023-03-08T01:32:11.365Z,1.90
2023-03-08T01:34:38.499Z,2.20
2023-03-08T01:37:05.795Z,1.90
2023-03-08T01:39:32.401Z,1.73
2023-03-08T01:41:58.765Z,2.60
2023-03-08T01:44:25.096Z,8.25
2023-03-08T01:46:52.679Z,3.83
2023-03-08T01:49:22.665Z,1.50
2023-03-08T01:51:54.563Z,1.63
2023-03-08T01:54:26.412Z,1.33
2023-03-08T01:56:58.106Z,1.35
2023-03-08T01:59:24.529Z,1.38
2023-03-08T02:01:51.017Z,1.45
2023-03-08T02:04:17.375Z,1.38
2023-03-08T02:06:44.820Z,1.40
2023-03-08T02:09:12.008Z,1.40
2023-03-08T02:11:41.685Z,1.60
2023-03-08T02:14:08.114Z,1.40
2023-03-08T02:16:34.624Z,1.60
2023-03-08T02:19:04.958Z,1.52
2023-03-08T02:21:32.428Z,1.65
2023-03-08T02:24:28.216Z,1.40
2023-03-08T02:27:08.060Z,1.50
2023-03-08T02:29:34.419Z,1.60
2023-03-08T02:32:00.793Z,1.50
2023-03-08T02:34:27.146Z,1.95
2023-03-08T02:36:53.510Z,1.55
2023-03-08T02:39:19.857Z,1.50
2023-03-08T02:41:46.252Z,1.90
2023-03-08T02:44:12.689Z,1.70
2023-03-08T02:46:39.136Z,1.70
2023-03-08T02:49:05.486Z,2.00
2023-03-08T02:51:31.833Z,1.98
2023-03-08T02:53:58.292Z,2.00
2023-03-08T02:56:24.792Z,2.10
2023-03-08T02:58:51.434Z,1.88
2023-03-08T03:01:17.856Z,2.05
2023-03-08T03:03:44.353Z,1.80
2023-03-08T03:06:19.539Z,2.25
2023-03-08T03:08:46.116Z,2.03
2023-03-08T03:11:18.115Z,2.20
2023-03-08T03:13:44.838Z,2.20
2023-03-08T03:16:14.158Z,2.30
2023-03-08T03:18:41.284Z,2.33
2023-03-08T03:21:10.638Z,2.33
2023-03-08T03:23:37.497Z,2.47
2023-03-08T03:26:06.450Z,2.42
2023-03-08T03:28:32.776Z,2.30
2023-03-08T03:30:59.222Z,2.40
2023-03-08T03:33:25.786Z,2.40
2023-03-08T03:35:52.125Z,2.70
2023-03-08T03:38:18.537Z,2.78
2023-03-08T03:40:44.922Z,2.85
2023-03-08T03:43:11.298Z,3.50
2023-03-08T03:45:37.673Z,9.90
2023-03-08T03:48:04.075Z,2.70
2023-03-08T03:50:30.450Z,2.70
2023-03-08T03:52:56.810Z,2.92
2023-03-08T03:55:23.139Z,2.40
2023-03-08T03:57:50.670Z,3.05
2023-03-08T04:00:17.505Z,2.72
2023-03-08T04:02:43.927Z,3.10
2023-03-08T04:05:10.302Z,3.08
2023-03-08T04:07:36.696Z,3.10
2023-03-08T04:10:03.106Z,3.22
2023-03-08T04:12:29.479Z,3.15
2023-03-08T04:14:55.851Z,3.00
2023-03-08T04:17:22.205Z,3.15
2023-03-08T04:19:50.242Z,3.17
2023-03-08T04:22:16.705Z,3.20
2023-03-08T04:24:43.359Z,3.50
2023-03-08T04:27:09.867Z,3.28
2023-03-08T04:29:36.313Z,3.35
2023-03-08T04:32:02.813Z,3.65
2023-03-08T04:34:29.145Z,3.50
2023-03-08T04:36:55.506Z,3.60
2023-03-08T04:39:21.899Z,3.22
2023-03-08T04:41:48.248Z,3.58
2023-03-08T04:44:14.615Z,3.90
2023-03-08T04:46:41.137Z,3.58
2023-03-08T04:49:07.558Z,3.95
2023-03-08T04:51:33.916Z,3.88
2023-03-08T04:54:00.265Z,4.32
2023-03-08T04:56:26.755Z,3.80
2023-03-08T04:58:53.185Z,4.85
2023-03-08T05:01:22.888Z,4.25
2023-03-08T05:03:49.720Z,3.95
2023-03-08T05:06:16.837Z,4.32
2023-03-08T05:08:43.944Z,4.75
2023-03-08T05:11:11.672Z,4.03
2023-03-08T05:13:38.946Z,4.97
2023-03-08T05:16:07.709Z,5.03
2023-03-08T05:18:34.372Z,5.20
2023-03-08T05:21:07.011Z,4.53
2023-03-08T05:23:34.185Z,5.00
2023-03-08T05:26:02.113Z,4.50
2023-03-08T05:28:31.568Z,5.22
2023-03-08T05:31:09.179Z,4.50
2023-03-08T05:33:36.459Z,5.00
2023-03-08T05:36:03.517Z,4.07
2023-03-08T05:38:30.412Z,4.32
2023-03-08T05:41:00.874Z,4.90
2023-03-08T05:43:27.687Z,4.90
2023-03-08T05:45:56.850Z,4.10
2023-03-08T05:48:23.884Z,4.97
2023-03-08T05:50:50.314Z,4.30
2023-03-08T05:53:16.697Z,4.63
2023-03-08T05:55:44.297Z,5.10
2023-03-08T05:58:10.825Z,5.05
2023-03-08T06:00:37.207Z,5.05
2023-03-08T06:03:03.980Z,4.95
2023-03-08T06:05:31.689Z,5.22
2023-03-08T06:07:58.709Z,5.80
2023-03-08T06:10:25.122Z,6.78
2023-03-08T06:12:51.811Z,5.38
2023-03-08T06:15:18.243Z,5.30
2023-03-08T06:17:44.640Z,5.20
2023-03-08T06:20:11.354Z,4.97
2023-03-08T06:22:37.848Z,5.15
2023-03-08T06:25:04.535Z,5.43
2023-03-08T06:27:30.920Z,5.65
2023-03-08T06:29:57.345Z,5.75
2023-03-08T06:32:23.776Z,5.53
2023-03-08T06:34:50.178Z,5.53
2023-03-08T06:37:16.731Z,5.90
2023-03-08T06:39:43.106Z,5.80
2023-03-08T06:42:09.527Z,5.95
2023-03-08T06:44:36.310Z,6.30
2023-03-08T06:47:03.336Z,6.22
2023-03-08T06:49:29.704Z,7.00
2023-03-08T06:51:56.053Z,6.57
2023-03-08T06:54:24.178Z,6.25
2023-03-08T06:56:50.885Z,6.57
2023-03-08T06:59:17.512Z,9.65
2023-03-08T07:01:43.981Z,8.57
2023-03-08T07:04:10.455Z,6.25
2023-03-08T07:06:36.993Z,6.22
2023-03-08T07:09:04.654Z,6.20
2023-03-08T07:11:32.210Z,6.47
2023-03-08T07:13:59.337Z,7.22
2023-03-08T07:16:25.704Z,7.15
2023-03-08T07:18:52.147Z,7.78
2023-03-08T07:21:18.648Z,8.13
2023-03-08T07:23:44.974Z,8.00
2023-03-08T07:26:11.841Z,7.45
2023-03-08T07:28:38.505Z,8.40
2023-03-08T07:31:05.160Z,12.15
2023-03-08T07:33:31.666Z,13.73
2023-03-08T07:36:04.507Z,9.32
2023-03-08T07:38:30.938Z,8.38
2023-03-08T07:40:57.848Z,7.80
2023-03-08T07:43:24.598Z,7.88
2023-03-08T07:45:51.077Z,23.02
2023-03-08T07:48:17.471Z,27.42
2023-03-08T07:50:43.829Z,9.82
2023-03-08T07:53:10.405Z,10.52
2023-03-08T07:55:38.129Z,9.95
2023-03-08T07:58:04.674Z,8.85
2023-03-08T08:00:31.163Z,8.43
2023-03-08T08:02:57.610Z,8.15
2023-03-08T08:05:26.363Z,8.10
2023-03-08T08:07:52.824Z,8.50
2023-03-08T08:10:19.346Z,9.90
2023-03-08T08:12:45.725Z,9.57
2023-03-08T08:15:12.238Z,8.43
2023-03-08T08:17:38.618Z,33.63
2023-03-08T08:20:08.099Z,10.77
2023-03-08T08:22:36.333Z,9.15
2023-03-08T08:25:05.142Z,8.15
2023-03-08T08:27:31.496Z,8.02
2023-03-08T08:29:59.207Z,8.38
2023-03-08T08:32:27.409Z,7.72
2023-03-08T08:34:53.781Z,7.78
2023-03-08T08:37:20.149Z,7.85
2023-03-08T08:39:46.520Z,7.90
2023-03-08T08:42:12.871Z,8.05
2023-03-08T08:44:39.230Z,7.78
2023-03-08T08:47:05.636Z,10.32
2023-03-08T08:49:32.137Z,10.50
2023-03-08T08:51:58.590Z,9.10
2023-03-08T08:54:25.132Z,6.15
2023-03-08T08:56:51.848Z,7.28
2023-03-08T08:59:18.235Z,6.90
2023-03-08T09:01:44.892Z,6.82
2023-03-08T09:04:13.601Z,7.00
2023-03-08T09:06:40.445Z,23.63
2023-03-08T09:09:07.052Z,20.38
2023-03-08T09:11:37.767Z,7.53
2023-03-08T09:14:11.525Z,6.80
2023-03-08T09:16:37.953Z,6.85
2023-03-08T09:19:04.968Z,7.32
2023-03-08T09:21:32.365Z,7.80
2023-03-08T09:24:01.520Z,7.35
2023-03-08T09:26:31.962Z,7.63
2023-03-08T09:29:04.635Z,7.22
2023-03-08T09:31:32.992Z,7.95
2023-03-08T09:34:00.088Z,7.82
2023-03-08T09:36:28.624Z,7.75
2023-03-08T09:38:56.018Z,7.65
2023-03-08T09:41:35.050Z,7.80
2023-03-08T09:44:32.206Z,8.35
2023-03-08T09:47:05.641Z,7.45
2023-03-08T09:49:33.311Z,7.88
2023-03-08T09:52:08.777Z,7.97
2023-03-08T09:54:38.470Z,8.82
2023-03-08T09:57:16.756Z,8.95
2023-03-08T10:00:08.109Z,8.50
2023-03-08T10:02:47.873Z,7.35
2023-03-08T10:05:26.456Z,7.85
2023-03-08T10:07:58.812Z,7.97
2023-03-08T10:10:43.848Z,7.43
2023-03-08T10:13:28.877Z,7.85
2023-03-08T10:16:11.235Z,7.10
2023-03-08T10:18:47.939Z,7.40
2023-03-08T10:21:18.333Z,7.45
2023-03-08T10:24:00.358Z,7.38
2023-03-08T10:26:28.237Z,7.13
2023-03-08T10:28:54.879Z,6.70
2023-03-08T10:31:25.966Z,7.53
2023-03-08T10:34:16.763Z,7.13
2023-03-08T10:37:04.339Z,7.38
2023-03-08T10:39:30.743Z,7.78
2023-03-08T10:46:14.862Z,6.45
2023-03-08T10:48:42.069Z,6.70
2023-03-08T10:51:23.504Z,7.18
2023-03-08T10:54:04.713Z,6.18
2023-03-08T10:56:33.766Z,6.05
2023-03-08T10:59:00.169Z,6.35
2023-03-08T11:01:29.434Z,6.30
2023-03-08T11:04:25.582Z,26.55
2023-03-08T11:06:52.024Z,16.35
2023-03-08T11:09:30.537Z,6.00
2023-03-08T11:11:58.820Z,6.13
2023-03-08T11:14:26.957Z,5.75
2023-03-08T11:17:12.341Z,5.47
2023-03-08T11:19:53.851Z,5.20
2023-03-08T11:22:29.449Z,5.63
2023-03-08T11:25:14.352Z,5.30
2023-03-08T11:28:11.700Z,5.15
2023-03-08T11:30:44.228Z,5.00
2023-03-08T11:33:26.950Z,5.82
2023-03-08T11:36:05.562Z,6.18
2023-03-08T11:38:33.380Z,6.72
2023-03-08T11:41:19.589Z,6.35
2023-03-08T11:44:04.315Z,6.82
2023-03-08T11:46:45.674Z,6.57
2023-03-08T11:49:41.720Z,7.03
2023-03-08T11:52:22.143Z,7.13
2023-03-08T11:55:15.612Z,7.35
2023-03-08T11:57:47.081Z,7.30
2023-03-08T12:00:31.519Z,7.38
2023-03-08T12:03:04.511Z,7.05
2023-03-08T12:05:35.106Z,7.97
2023-03-08T12:08:12.366Z,8.43
2023-03-08T12:10:50.919Z,7.78
2023-03-08T12:13:24.033Z,8.13
2023-03-08T12:16:15.268Z,12.65
2023-03-08T12:19:22.306Z,15.20
2023-03-08T12:22:01.584Z,9.10
2023-03-08T12:24:41.955Z,9.55
2023-03-08T12:27:40.558Z,9.10
2023-03-08T12:30:10.009Z,9.35
2023-03-08T12:32:39.688Z,9.68
2023-03-08T12:35:25.733Z,9.82
2023-03-08T12:38:15.381Z,12.70
2023-03-08T12:40:47.125Z,13.10
2023-03-08T12:43:14.754Z,10.50
2023-03-08T12:45:44.201Z,10.15
2023-03-08T12:48:22.523Z,9.10
2023-03-08T12:51:00.245Z,9.50
2023-03-08T12:53:33.310Z,9.85
2023-03-08T12:56:10.575Z,9.57
2023-03-08T12:58:40.311Z,10.48
2023-03-08T13:03:41.885Z,9.70
2023-03-08T13:06:23.593Z,10.13
2023-03-08T13:09:15.602Z,9.98
2023-03-08T13:11:48.062Z,10.18
2023-03-08T13:14:37.903Z,10.65
2023-03-08T13:17:36.335Z,11.05
2023-03-08T13:20:38.901Z,17.38
2023-03-08T13:23:10.820Z,24.42
2023-03-08T13:26:01.126Z,10.20
2023-03-08T13:28:46.680Z,9.20
2023-03-08T13:31:18.475Z,9.40
2023-03-08T13:33:50.985Z,9.10
2023-03-08T13:36:19.272Z,8.60
2023-03-08T13:38:56.277Z,9.02
2023-03-08T13:41:39.836Z,9.20
2023-03-08T13:44:13.888Z,8.98
2023-03-08T13:46:42.832Z,8.65
2023-03-08T13:49:18.121Z,8.35
2023-03-08T13:51:48.081Z,8.60
2023-03-08T13:54:29.232Z,8.35
2023-03-08T13:56:58.060Z,8.18
2023-03-08T13:59:24.513Z,7.45
2023-03-08T14:01:52.543Z,7.72
2023-03-08T14:04:27.717Z,8.25
2023-03-08T14:06:56.606Z,7.70
2023-03-08T14:09:23.549Z,8.15
2023-03-08T14:12:06.598Z,8.00
2023-03-08T14:14:37.356Z,7.60
2023-03-08T14:17:04.786Z,7.95
2023-03-08T14:19:35.271Z,21.60
2023-03-08T14:22:04.556Z,20.27
2023-03-08T14:24:33.986Z,8.48
2023-03-08T14:27:03.527Z,8.05
2023-03-08T14:29:32.604Z,7.38
2023-03-08T14:32:26.724Z,8.55
2023-03-08T14:35:16.186Z,8.18
2023-03-08T14:37:45.432Z,6.43
2023-03-08T14:40:21.093Z,6.32
2023-03-08T14:42:51.340Z,5.65
2023-03-08T14:45:20.597Z,5.63
2023-03-08T14:47:58.058Z,5.82
2023-03-08T14:50:32.878Z,5.20
2023-03-08T14:53:01.606Z,4.80
2023-03-08T14:55:33.435Z,36.28
2023-03-08T14:58:03.343Z,13.13
2023-03-08T15:00:31.222Z,4.65
2023-03-08T15:02:59.057Z,4.20
2023-03-08T15:05:29.442Z,4.60
2023-03-08T15:07:59.301Z,4.78
2023-03-08T15:12:57.650Z,5.03
2023-03-08T15:15:24.317Z,4.30
2023-03-08T15:17:50.888Z,4.60
2023-03-08T15:20:17.937Z,5.55
2023-03-08T15:22:50.450Z,4.80
2023-03-08T15:25:22.858Z,5.47
2023-03-08T15:27:49.901Z,5.60
2023-03-08T15:30:23.074Z,5.90
2023-03-08T15:32:49.991Z,5.57
2023-03-08T15:35:16.953Z,6.18
2023-03-08T15:37:44.492Z,7.05
2023-03-08T15:40:22.674Z,8.02
2023-03-08T15:42:49.016Z,5.97
2023-03-08T15:45:15.545Z,6.30
2023-03-08T15:47:42.577Z,5.93
2023-03-08T15:50:17.969Z,5.68
2023-03-08T15:52:45.367Z,6.07
2023-03-08T15:55:13.497Z,5.97
2023-03-08T15:57:40.284Z,5.72
2023-03-08T16:00:09.490Z,5.97
2023-03-08T16:02:37.346Z,6.25
2023-03-08T16:05:05.518Z,6.68
2023-03-08T16:07:32.073Z,6.18
2023-03-08T16:09:58.459Z,6.57
2023-03-08T16:12:24.848Z,44.10
2023-03-08T16:14:51.752Z,34.92
2023-03-08T16:17:18.363Z,12.38
2023-03-08T16:19:44.800Z,8.05
2023-03-08T16:22:11.541Z,6.93
2023-03-08T16:24:37.954Z,6.78
2023-03-08T16:27:04.494Z,7.03
2023-03-08T16:29:32.444Z,7.57
2023-03-08T16:31:59.394Z,7.63
2023-03-08T16:34:26.784Z,7.50
2023-03-08T16:36:53.991Z,7.80
2023-03-08T16:39:20.975Z,8.48
2023-03-08T16:41:47.887Z,8.10
2023-03-08T16:44:21.948Z,8.68
2023-03-08T16:46:48.871Z,9.23
2023-03-08T16:49:16.535Z,8.88
2023-03-08T16:51:43.211Z,9.18
2023-03-08T16:54:11.392Z,9.00
2023-03-08T16:56:38.201Z,9.15
2023-03-08T16:59:04.988Z,10.85
2023-03-08T17:01:31.599Z,10.38
2023-03-08T17:03:58.869Z,9.57
2023-03-08T17:06:28.622Z,11.20
2023-03-08T17:11:25.659Z,19.25
2023-03-08T17:13:55.392Z,19.67
2023-03-08T17:18:50.659Z,9.98
2023-03-08T17:21:17.714Z,10.02
2023-03-08T17:23:44.673Z,10.38
2023-03-08T17:26:13.039Z,11.23
2023-03-08T17:28:40.115Z,10.68
2023-03-08T17:31:11.883Z,10.35
2023-03-08T17:33:38.643Z,10.60
2023-03-08T17:36:06.520Z,11.18
2023-03-08T17:38:33.718Z,10.23
2023-03-08T17:41:03.948Z,10.63
2023-03-08T17:43:30.347Z,10.85
2023-03-08T17:45:58.618Z,11.43
2023-03-08T17:48:25.117Z,10.98
2023-03-08T17:50:52.147Z,11.10
2023-03-08T17:53:19.228Z,11.27
2023-03-08T17:55:45.996Z,11.10
2023-03-08T17:58:12.591Z,10.90
2023-03-08T18:00:39.251Z,11.43
2023-03-08T18:03:05.618Z,11.90
2023-03-08T18:05:32.110Z,11.82
2023-03-08T18:07:58.588Z,11.07
2023-03-08T18:10:25.060Z,11.15
2023-03-08T18:12:51.634Z,11.65
2023-03-08T18:15:17.992Z,10.45
2023-03-08T18:17:44.344Z,11.23
2023-03-08T18:20:11.287Z,27.55
2023-03-08T18:22:40.491Z,28.27
2023-03-08T18:25:07.050Z,13.43
2023-03-08T18:27:33.436Z,11.75
2023-03-08T18:30:00.000Z,11.95
2023-03-08T18:32:27.993Z,11.27
2023-03-08T18:34:54.416Z,11.75
2023-03-08T18:37:21.082Z,11.43
2023-03-08T18:39:52.791Z,11.50
2023-03-08T18:42:19.259Z,11.57
2023-03-08T18:44:45.670Z,11.30
2023-03-08T18:47:12.175Z,11.40
2023-03-08T18:49:38.564Z,11.75
2023-03-08T18:52:05.172Z,11.52
2023-03-08T18:54:31.517Z,12.60
2023-03-08T18:56:59.150Z,12.75
2023-03-08T18:59:26.491Z,11.50
2023-03-08T19:01:54.073Z,11.32
2023-03-08T19:04:20.617Z,11.15
2023-03-08T19:06:47.151Z,11.77
2023-03-08T19:09:16.046Z,31.08
2023-03-08T19:11:42.523Z,33.25
2023-03-08T19:14:11.622Z,12.98
2023-03-08T19:16:38.482Z,11.30
2023-03-08T19:19:10.769Z,12.38
2023-03-08T19:21:41.377Z,12.15
2023-03-08T19:24:08.298Z,13.57
2023-03-08T19:26:37.355Z,12.35
2023-03-08T19:29:23.434Z,13.10
2023-03-08T19:31:57.006Z,12.52
2023-03-08T19:34:29.127Z,12.98
2023-03-08T19:36:57.717Z,12.77
2023-03-08T19:39:27.127Z,13.38
2023-03-08T19:42:02.460Z,13.75
2023-03-08T19:44:30.071Z,12.60
2023-03-08T19:46:56.884Z,13.77
2023-03-08T19:49:26.814Z,16.05
2023-03-08T19:54:23.248Z,14.05
2023-03-08T19:56:50.130Z,14.98
2023-03-08T19:59:16.794Z,14.60
2023-03-08T20:01:43.793Z,14.70
2023-03-08T20:04:11.014Z,14.52
2023-03-08T20:06:41.272Z,14.75
2023-03-08T20:09:09.907Z,14.48
2023-03-08T20:11:36.742Z,14.57
2023-03-08T20:14:03.467Z,16.23
2023-03-08T20:16:31.089Z,15.05
2023-03-08T20:18:57.732Z,15.13
2023-03-08T20:21:27.341Z,14.85
2023-03-08T20:23:57.703Z,14.75
2023-03-08T20:26:26.193Z,15.13
2023-03-08T20:28:52.795Z,14.68
2023-03-08T20:31:19.728Z,14.93
2023-03-08T20:33:46.332Z,14.30
2023-03-08T20:36:12.915Z,14.68
2023-03-08T20:38:39.712Z,15.38
2023-03-08T20:41:18.659Z,15.63
2023-03-08T20:43:46.965Z,15.82
2023-03-08T20:46:15.321Z,15.88
2023-03-08T20:48:43.800Z,15.65
2023-03-08T20:51:13.238Z,15.90
2023-03-08T20:53:39.791Z,15.93
2023-03-08T20:56:08.003Z,15.25
2023-03-08T20:58:34.441Z,16.42
2023-03-08T21:01:01.086Z,16.35
2023-03-08T21:03:27.628Z,17.02
2023-03-08T21:05:54.010Z,17.08
2023-03-08T21:08:24.145Z,16.70
2023-03-08T21:10:50.629Z,16.85
2023-03-08T21:13:16.992Z,17.35
2023-03-08T21:15:43.390Z,18.42
2023-03-08T21:18:09.772Z,21.70
2023-03-08T21:20:37.856Z,22.33
2023-03-08T21:23:04.283Z,19.67
2023-03-08T21:25:33.724Z,18.50
2023-03-08T21:28:00.093Z,17.52
2023-03-08T21:30:28.280Z,17.02
2023-03-08T21:32:55.096Z,16.95
2023-03-08T21:35:22.809Z,16.80
2023-03-08T21:37:49.220Z,17.15
2023-03-08T21:40:15.704Z,17.08
2023-03-08T21:42:42.081Z,17.48
2023-03-08T21:45:09.073Z,17.10
2023-03-08T21:47:35.402Z,17.35
2023-03-08T21:50:01.763Z,16.45
2023-03-08T21:52:28.123Z,17.20
2023-03-08T21:54:54.524Z,17.58
2023-03-08T21:57:20.882Z,17.45
2023-03-08T21:59:47.308Z,17.48
2023-03-08T22:02:13.669Z,16.45
2023-03-08T22:04:40.172Z,17.98
2023-03-08T22:07:06.561Z,17.33
2023-03-08T22:09:32.948Z,17.88
2023-03-08T22:11:59.490Z,17.38
2023-03-08T22:14:26.871Z,17.77
2023-03-08T22:16:55.281Z,17.85
2023-03-08T22:19:21.765Z,17.88
2023-03-08T22:21:48.122Z,17.15
2023-03-08T22:24:14.511Z,17.58
2023-03-08T22:26:41.062Z,17.20
2023-03-08T22:29:07.591Z,17.73
2023-03-08T22:31:33.963Z,17.67
2023-03-08T22:34:01.424Z,17.88
2023-03-08T22:36:28.199Z,18.17
2023-03-08T22:38:54.589Z,18.00
2023-03-08T22:41:26.514Z,18.02
2023-03-08T22:43:53.236Z,18.40
2023-03-08T22:46:22.786Z,18.58
2023-03-08T22:48:50.091Z,18.50
2023-03-08T22:51:19.693Z,18.48
2023-03-08T22:53:46.065Z,16.75
2023-03-08T22:56:25.819Z,17.65
2023-03-08T22:58:52.511Z,17.00
2023-03-08T23:01:21.886Z,17.45
2023-03-08T23:03:49.682Z,17.98
2023-03-08T23:06:17.893Z,17.88
2023-03-08T23:08:44.798Z,16.88
2023-03-08T23:11:12.111Z,18.13
2023-03-08T23:13:38.583Z,17.27
2023-03-08T23:16:07.404Z,17.55
2023-03-08T23:18:35.050Z,17.17
2023-03-08T23:21:04.138Z,16.23
2023-03-08T23:23:30.757Z,16.55
2023-03-08T23:25:57.774Z,16.83
2023-03-08T23:28:24.491Z,16.85
2023-03-08T23:30:50.862Z,16.10
2023-03-08T23:33:17.270Z,16.25
2023-03-08T23:35:48.254Z,16.27
2023-03-08T23:38:14.722Z,16.50
2023-03-08T23:40:41.176Z,16.65
2023-03-08T23:43:07.567Z,16.83
2023-03-08T23:45:33.976Z,16.67
2023-03-08T23:48:03.085Z,16.85
2023-03-08T23:50:29.666Z,17.35
2023-03-08T23:52:56.042Z,16.20
2023-03-08T23:55:22.416Z,15.68
2023-03-08T23:57:48.771Z,16.27
